createdAt,value
2022-10-11T00:01:18.120Z,101854.47
2022-10-11T00:03:44.530Z,101827.16
2022-10-11T00:06:11.207Z,101862.13
2022-10-11T00:08:37.849Z,101847.03
2022-10-11T00:11:07.721Z,101860.53
2022-10-11T00:13:34.721Z,101861.84
2022-10-11T00:16:01.285Z,101864.84
2022-10-11T00:18:27.832Z,101871.16
2022-10-11T00:21:02.962Z,101864.81
2022-10-11T00:23:29.384Z,101884.63
2022-10-11T00:25:57.559Z,101891.03
2022-10-11T00:28:24.061Z,101878.88
2022-10-11T00:30:50.447Z,101880.59
2022-10-11T00:33:16.920Z,101886.78
2022-10-11T00:35:44.911Z,101890.75
2022-10-11T00:38:11.462Z,101890.63
2022-10-11T00:40:38.279Z,101902.59
2022-10-11T00:43:14.293Z,101913.06
2022-10-11T00:45:40.715Z,101901.53
2022-10-11T00:48:17.466Z,101902.38
2022-10-11T00:50:43.981Z,101903.13
2022-10-11T00:53:12.164Z,101899.59
2022-10-11T00:56:05.161Z,101896.97
2022-10-11T00:58:35.184Z,101905.72
2022-10-11T01:01:02.292Z,101897.81
2022-10-11T01:03:30.387Z,101905.28
2022-10-11T01:05:57.193Z,101905.38
2022-10-11T01:08:24.805Z,101906.50
2022-10-11T01:10:52.103Z,101899.50
2022-10-11T01:13:18.437Z,101907.97
2022-10-11T01:15:58.205Z,101905.41
2022-10-11T01:18:35.661Z,101916.63
2022-10-11T01:21:15.076Z,101910.88
2022-10-11T01:24:04.655Z,101910.53
2022-10-11T01:27:16.359Z,101911.03
2022-10-11T01:30:03.591Z,101926.56
2022-10-11T01:33:00.585Z,101913.28
2022-10-11T01:36:07.528Z,101930.41
2022-10-11T01:38:50.170Z,101924.06
2022-10-11T01:41:23.779Z,101922.38
2022-10-11T01:43:55.628Z,101918.56
2022-10-11T01:46:23.804Z,101923.06
2022-10-11T01:48:52.105Z,101921.91
2022-10-11T01:51:28.613Z,101924.78
2022-10-11T01:54:07.906Z,101931.13
2022-10-11T01:57:10.367Z,101931.84
2022-10-11T01:59:51.807Z,101941.16
2022-10-11T02:02:36.257Z,101944.00
2022-10-11T02:05:38.142Z,101945.19
2022-10-11T02:08:47.655Z,101946.38
2022-10-11T02:11:28.726Z,101952.69
2022-10-11T02:14:20.492Z,101952.06
2022-10-11T02:16:53.975Z,101951.53
2022-10-11T02:19:26.269Z,101953.34
2022-10-11T02:21:57.622Z,101957.38
2022-10-11T02:24:36.648Z,101957.50
2022-10-11T02:27:05.162Z,101972.53
2022-10-11T02:29:36.028Z,101967.09
2022-10-11T02:32:02.509Z,101953.03
2022-10-11T02:34:37.724Z,101953.41
2022-10-11T02:37:19.323Z,101953.19
2022-10-11T02:40:16.014Z,101960.69
2022-10-11T02:42:48.662Z,101962.38
2022-10-11T02:45:19.702Z,101956.81
2022-10-11T02:47:47.246Z,101960.09
2022-10-11T02:50:14.275Z,101969.94
2022-10-11T02:52:40.680Z,101970.13
2022-10-11T02:55:07.928Z,101956.38
2022-10-11T02:57:34.300Z,101958.41
2022-10-11T03:00:00.645Z,101973.34
2022-10-11T03:02:27.377Z,101975.16
2022-10-11T03:04:53.889Z,101976.97
2022-10-11T03:07:20.298Z,101981.19
2022-10-11T03:09:46.830Z,101969.97
2022-10-11T03:12:13.203Z,101986.63
2022-10-11T03:14:39.707Z,101998.47
2022-10-11T03:17:31.020Z,102002.09
2022-10-11T03:19:52.624Z,102003.78
2022-10-11T03:22:19.088Z,102008.28
2022-10-11T03:24:45.492Z,102027.78
2022-10-11T03:27:12.219Z,102043.47
2022-10-11T03:29:38.808Z,102038.03
2022-10-11T03:32:05.636Z,102043.03
2022-10-11T03:34:32.021Z,102042.91
2022-10-11T03:36:58.407Z,102035.56
2022-10-11T03:39:24.793Z,102046.16
2022-10-11T03:41:51.162Z,102041.66
2022-10-11T03:44:17.668Z,102036.13
2022-10-11T03:46:44.024Z,102019.13
2022-10-11T03:49:10.394Z,102031.28
2022-10-11T03:51:36.759Z,102036.50
2022-10-11T03:54:03.206Z,102036.94
2022-10-11T03:56:29.554Z,102046.88
2022-10-11T03:58:55.938Z,102045.41
2022-10-11T04:01:22.385Z,102047.41
2022-10-11T04:03:48.898Z,102047.84
2022-10-11T04:06:15.266Z,102059.72
2022-10-11T04:08:41.653Z,102052.13
2022-10-11T04:11:08.070Z,102053.41
2022-10-11T04:13:34.416Z,102050.88
2022-10-11T04:16:00.833Z,102065.16
2022-10-11T04:18:27.297Z,102075.06
2022-10-11T04:20:53.907Z,102059.69
2022-10-11T04:23:20.294Z,102071.00
2022-10-11T04:25:48.301Z,102073.75
2022-10-11T04:28:14.815Z,102070.78
2022-10-11T04:30:41.287Z,102077.06
2022-10-11T04:33:07.921Z,102085.06
2022-10-11T04:35:34.328Z,102088.78
2022-10-11T04:38:00.797Z,102086.44
2022-10-11T04:40:27.343Z,102085.06
2022-10-11T04:42:53.956Z,102090.50
2022-10-11T04:45:21.632Z,102100.38
2022-10-11T04:47:48.086Z,102091.00
2022-10-11T04:50:14.830Z,102101.00
2022-10-11T04:52:41.306Z,102099.41
2022-10-11T04:55:08.094Z,102104.84
2022-10-11T04:57:34.532Z,102110.16
2022-10-11T05:00:01.871Z,102108.56
2022-10-11T05:02:28.322Z,102107.25
2022-10-11T05:04:54.875Z,102116.41
2022-10-11T05:07:21.290Z,102118.00
2022-10-11T05:09:47.657Z,102126.75
2022-10-11T05:12:14.050Z,102132.06
2022-10-11T05:14:40.449Z,102136.63
2022-10-11T05:17:06.823Z,102131.53
2022-10-11T05:19:33.187Z,102128.13
2022-10-11T05:21:59.615Z,102133.53
2022-10-11T05:24:26.096Z,102132.88
2022-10-11T05:26:52.707Z,102144.38
2022-10-11T05:29:19.070Z,102146.28
2022-10-11T05:31:45.463Z,102140.44
2022-10-11T05:34:11.866Z,102149.28
2022-10-11T05:36:38.270Z,102141.00
2022-10-11T05:39:04.668Z,102152.50
2022-10-11T05:41:31.103Z,102159.53
2022-10-11T05:43:57.477Z,102153.56
2022-10-11T05:46:24.080Z,102165.91
2022-10-11T05:48:50.446Z,102159.28
2022-10-11T05:51:16.819Z,102167.06
2022-10-11T05:53:43.319Z,102168.78
2022-10-11T05:56:21.428Z,102168.91
2022-10-11T05:58:48.467Z,102167.91
2022-10-11T06:01:23.157Z,102167.06
2022-10-11T06:03:49.895Z,102184.16
2022-10-11T06:06:16.631Z,102184.94
2022-10-11T06:08:43.479Z,102191.47
2022-10-11T06:11:25.296Z,102198.13
2022-10-11T06:13:57.927Z,102193.22
2022-10-11T06:16:24.870Z,102200.34
2022-10-11T06:18:55.422Z,102200.91
2022-10-11T06:21:23.144Z,102209.47
2022-10-11T06:23:50.958Z,102214.38
2022-10-11T06:26:18.105Z,102204.69
2022-10-11T06:28:44.569Z,102221.31
2022-10-11T06:31:11.354Z,102202.69
2022-10-11T06:33:38.694Z,102215.63
2022-10-11T06:36:08.507Z,102216.25
2022-10-11T06:38:35.522Z,102226.81
2022-10-11T06:41:18.387Z,102215.84
2022-10-11T06:43:45.460Z,102212.44
2022-10-11T06:46:12.596Z,102225.25
2022-10-11T06:48:40.273Z,102218.03
2022-10-11T06:51:06.671Z,102226.00
2022-10-11T06:53:33.079Z,102244.34
2022-10-11T06:56:08.479Z,102236.25
2022-10-11T06:58:35.651Z,102239.47
2022-10-11T07:01:04.353Z,102242.81
2022-10-11T07:03:31.474Z,102249.59
2022-10-11T07:06:06.803Z,102250.91
2022-10-11T07:08:34.129Z,102247.09
2022-10-11T07:11:02.229Z,102246.97
2022-10-11T07:13:28.852Z,102253.63
2022-10-11T07:15:56.030Z,102254.16
2022-10-11T07:18:23.430Z,102259.94
2022-10-11T07:20:49.855Z,102257.16
2022-10-11T07:23:16.246Z,102258.59
2022-10-11T07:25:42.717Z,102258.25
2022-10-11T07:28:09.133Z,102264.03
2022-10-11T07:30:39.246Z,102269.72
2022-10-11T07:33:05.677Z,102255.28
2022-10-11T07:35:36.064Z,102268.66
2022-10-11T07:38:02.819Z,102274.84
2022-10-11T07:40:29.189Z,102268.97
2022-10-11T07:42:56.912Z,102268.56
2022-10-11T07:45:24.147Z,102275.25
2022-10-11T07:47:50.549Z,102268.00
2022-10-11T07:50:20.295Z,102277.19
2022-10-11T07:52:47.279Z,102270.53
2022-10-11T07:55:23.093Z,102262.63
2022-10-11T07:57:58.477Z,102300.44
2022-10-11T08:00:28.294Z,102230.63
2022-10-11T08:03:06.158Z,102254.72
2022-10-11T08:05:39.917Z,102256.09
2022-10-11T08:08:10.444Z,102258.97
2022-10-11T08:10:49.011Z,102267.38
2022-10-11T08:13:32.513Z,102268.13
2022-10-11T08:16:09.632Z,102235.44
2022-10-11T08:18:52.816Z,102297.09
2022-10-11T08:21:23.757Z,102284.00
2022-10-11T08:23:59.798Z,102280.28
2022-10-11T08:26:40.357Z,102306.66
2022-10-11T08:29:14.851Z,102280.69
2022-10-11T08:31:53.573Z,102276.75
2022-10-11T08:34:27.258Z,102279.91
2022-10-11T08:36:59.836Z,102328.31
2022-10-11T08:39:43.254Z,102252.59
2022-10-11T08:42:46.422Z,102260.31
2022-10-11T08:45:46.934Z,102313.84
2022-10-11T08:48:23.481Z,102267.06
2022-10-11T08:50:58.265Z,102273.41
2022-10-11T08:53:49.252Z,102317.28
2022-10-11T08:56:28.419Z,102309.50
2022-10-11T08:59:16.158Z,102320.97
2022-10-11T09:02:49.307Z,102297.81
2022-10-11T09:05:23.239Z,102263.00
2022-10-11T09:08:42.710Z,102287.09
2022-10-11T09:11:55.343Z,102328.25
2022-10-11T09:14:46.804Z,102280.38
2022-10-11T09:17:51.570Z,102331.06
2022-10-11T09:21:02.724Z,102328.41
2022-10-11T09:24:10.952Z,102337.84
2022-10-11T09:27:14.771Z,102327.88
2022-10-11T09:30:24.458Z,102305.53
2022-10-11T09:33:37.499Z,102311.91
2022-10-11T09:36:31.978Z,102282.91
2022-10-11T09:39:31.900Z,102313.53
2022-10-11T09:42:03.802Z,102343.31
2022-10-11T09:44:47.386Z,102349.06
2022-10-11T09:47:27.494Z,102347.91
2022-10-11T09:50:20.590Z,102343.47
2022-10-11T09:53:02.666Z,102311.06
2022-10-11T09:55:35.797Z,102319.72
2022-10-11T09:58:30.579Z,102340.44
2022-10-11T10:01:23.351Z,102352.09
2022-10-11T10:04:17.323Z,102348.50
2022-10-11T10:06:50.383Z,102289.47
2022-10-11T10:09:30.726Z,102363.59
2022-10-11T10:15:16.834Z,102368.06
2022-10-11T10:17:58.360Z,102293.59
2022-10-11T10:20:34.319Z,102339.56
2022-10-11T10:23:19.745Z,102345.47
2022-10-11T10:25:54.054Z,102292.34
2022-10-11T10:28:28.854Z,102352.09
2022-10-11T10:31:05.282Z,102298.09
2022-10-11T10:33:41.143Z,102316.75
2022-10-11T10:36:24.473Z,102341.53
2022-10-11T10:39:09.369Z,102350.50
2022-10-11T10:41:46.281Z,102324.94
2022-10-11T10:44:18.902Z,102314.38
2022-10-11T10:47:09.978Z,102309.25
2022-10-11T10:50:06.743Z,102310.16
2022-10-11T10:53:04.228Z,102371.84
2022-10-11T10:56:04.603Z,102367.66
2022-10-11T10:59:16.136Z,102369.19
2022-10-11T11:02:35.492Z,102357.78
2022-10-11T11:05:27.140Z,102378.06
2022-10-11T11:08:50.685Z,102328.06
2022-10-11T11:11:32.268Z,102379.72
2022-10-11T11:14:28.281Z,102340.13
2022-10-11T11:17:25.013Z,102387.25
2022-10-11T11:20:18.097Z,102378.03
2022-10-11T11:23:31.479Z,102377.13
2022-10-11T11:26:30.893Z,102406.16
2022-10-11T11:29:55.625Z,102334.84
2022-10-11T11:33:13.577Z,102387.38
2022-10-11T11:36:02.206Z,102318.44
2022-10-11T11:38:50.158Z,102381.59
2022-10-11T11:41:34.527Z,102396.41
2022-10-11T11:44:25.133Z,102401.94
2022-10-11T11:47:09.371Z,102339.41
2022-10-11T11:49:48.820Z,102392.94
2022-10-11T11:52:35.034Z,102366.22
2022-10-11T11:55:39.297Z,102389.53
2022-10-11T11:58:38.265Z,102383.66
2022-10-11T12:01:36.317Z,102387.53
2022-10-11T12:04:25.793Z,102363.34
2022-10-11T12:07:21.636Z,102393.56
2022-10-11T12:10:33.356Z,102384.97
2022-10-11T12:13:08.614Z,102384.91
2022-10-11T12:15:37.632Z,102390.78
2022-10-11T12:18:30.422Z,102308.56
2022-10-11T12:21:28.988Z,102339.97
2022-10-11T12:24:06.526Z,102356.88
2022-10-11T12:26:50.256Z,102387.53
2022-10-11T12:29:37.656Z,102384.69
2022-10-11T12:32:06.843Z,102376.13
2022-10-11T12:34:43.963Z,102303.03
2022-10-11T12:37:26.354Z,102375.19
2022-10-11T12:40:03.517Z,102375.81
2022-10-11T12:42:50.996Z,102321.53
2022-10-11T12:45:24.519Z,102365.50
2022-10-11T12:48:33.907Z,102373.00
2022-10-11T12:51:36.684Z,102320.16
2022-10-11T12:54:41.509Z,102358.94
2022-10-11T12:57:29.139Z,102370.59
2022-10-11T13:00:17.047Z,102302.34
2022-10-11T13:02:47.819Z,102377.84
2022-10-11T13:05:45.048Z,102315.34
2022-10-11T13:08:43.844Z,102326.19
2022-10-11T13:11:22.111Z,102301.97
2022-10-11T13:13:53.395Z,102351.66
2022-10-11T13:16:28.270Z,102353.19
2022-10-11T13:19:01.531Z,102383.81
2022-10-11T13:21:39.451Z,102305.38
2022-10-11T13:24:21.020Z,102276.72
2022-10-11T13:26:55.676Z,102300.97
2022-10-11T13:30:03.912Z,102279.25
2022-10-11T13:32:38.328Z,102293.97
2022-10-11T13:35:24.918Z,102340.81
2022-10-11T13:38:00.856Z,102349.31
2022-10-11T13:40:31.536Z,102313.72
2022-10-11T13:43:09.217Z,102322.66
2022-10-11T13:45:47.246Z,102304.75
2022-10-11T13:48:18.454Z,102265.81
2022-10-11T13:50:56.420Z,102361.59
2022-10-11T13:53:40.919Z,102308.09
2022-10-11T13:56:19.086Z,102261.84
2022-10-11T13:58:51.317Z,102320.44
2022-10-11T14:01:40.956Z,102318.22
2022-10-11T14:04:29.466Z,102314.00
2022-10-11T14:07:08.286Z,102348.53
2022-10-11T14:09:51.549Z,102328.41
2022-10-11T14:12:54.097Z,102350.28
2022-10-11T14:15:42.603Z,102304.44
2022-10-11T14:18:54.769Z,102332.72
2022-10-11T14:21:58.424Z,102351.41
2022-10-11T14:24:27.963Z,102343.94
2022-10-11T14:26:59.669Z,102368.78
2022-10-11T14:29:41.702Z,102331.13
2022-10-11T14:32:16.375Z,102347.13
2022-10-11T14:34:57.548Z,102365.25
2022-10-11T14:37:36.439Z,102303.25
2022-10-11T14:40:39.282Z,102354.81
2022-10-11T14:43:13.697Z,102328.94
2022-10-11T14:45:51.291Z,102296.78
2022-10-11T14:48:36.677Z,102352.88
2022-10-11T14:51:16.921Z,102306.72
2022-10-11T14:53:51.902Z,102306.16
2022-10-11T14:56:22.192Z,102337.75
2022-10-11T14:58:57.628Z,102338.47
2022-10-11T15:01:27.674Z,102314.81
2022-10-11T15:03:54.998Z,102335.63
2022-10-11T15:06:33.262Z,102309.44
2022-10-11T15:09:06.427Z,102374.78
2022-10-11T15:11:55.585Z,102302.38
2022-10-11T15:14:28.774Z,102279.81
2022-10-11T15:16:59.032Z,102371.13
2022-10-11T15:19:33.522Z,102354.31
2022-10-11T15:22:02.499Z,102312.44
2022-10-11T15:24:29.729Z,102340.13
2022-10-11T15:27:04.659Z,102328.91
2022-10-11T15:29:40.521Z,102344.22
2022-10-11T15:32:10.839Z,102275.78
2022-10-11T15:34:42.063Z,102313.75
2022-10-11T15:37:09.266Z,102372.59
2022-10-11T15:39:44.158Z,102349.03
2022-10-11T15:42:13.628Z,102364.09
2022-10-11T15:44:54.187Z,102312.19
2022-10-11T15:47:27.161Z,102323.13
2022-10-11T15:50:06.257Z,102333.63
2022-10-11T15:52:46.472Z,102287.84
2022-10-11T15:55:13.709Z,102369.75
2022-10-11T15:57:43.931Z,102333.47
2022-10-11T16:00:10.742Z,102372.03
2022-10-11T16:02:47.967Z,102339.28
2022-10-11T16:05:15.123Z,102363.81
2022-10-11T16:07:54.005Z,102285.84
2022-10-11T16:10:30.912Z,102358.16
2022-10-11T16:13:01.773Z,102343.13
2022-10-11T16:18:22.354Z,102369.19
2022-10-11T16:20:51.415Z,102377.00
2022-10-11T16:23:34.624Z,102328.19
2022-10-11T16:26:04.858Z,102355.13
2022-10-11T16:28:40.749Z,102353.56
2022-10-11T16:31:13.678Z,102311.56
2022-10-11T16:33:54.637Z,102349.00
2022-10-11T16:36:31.777Z,102387.41
2022-10-11T16:39:01.147Z,102380.91
2022-10-11T16:41:33.285Z,102361.97
2022-10-11T16:44:10.555Z,102344.63
2022-10-11T16:46:54.568Z,102351.25
2022-10-11T16:49:27.791Z,102336.56
2022-10-11T16:52:00.599Z,102347.75
2022-10-11T16:54:37.547Z,102356.63
2022-10-11T16:57:13.926Z,102355.56
2022-10-11T16:59:46.511Z,102375.63
2022-10-11T17:02:20.460Z,102333.16
2022-10-11T17:04:53.004Z,102364.50
2022-10-11T17:07:31.441Z,102332.75
2022-10-11T17:10:01.547Z,102334.97
2022-10-11T17:12:39.748Z,102373.72
2022-10-11T17:15:10.090Z,102364.56
2022-10-11T17:17:37.154Z,102332.34
2022-10-11T17:20:06.407Z,102336.50
2022-10-11T17:22:36.222Z,102315.31
2022-10-11T17:25:05.617Z,102321.31
2022-10-11T17:27:32.584Z,102398.06
2022-10-11T17:29:59.231Z,102341.41
2022-10-11T17:32:26.525Z,102385.41
2022-10-11T17:34:53.925Z,102340.47
2022-10-11T17:37:23.743Z,102396.63
2022-10-11T17:39:50.787Z,102356.88
2022-10-11T17:42:17.486Z,102370.69
2022-10-11T17:44:44.462Z,102381.53
2022-10-11T17:47:16.713Z,102351.34
2022-10-11T17:49:52.597Z,102349.63
2022-10-11T17:52:22.842Z,102349.75
2022-10-11T17:54:52.166Z,102387.13
2022-10-11T17:57:18.989Z,102394.97
2022-10-11T17:59:45.758Z,102362.91
2022-10-11T18:02:14.736Z,102362.44
2022-10-11T18:04:46.223Z,102365.47
2022-10-11T18:07:12.932Z,102365.94
2022-10-11T18:09:41.183Z,102384.59
2022-10-11T18:12:08.035Z,102368.59
2022-10-11T18:14:34.445Z,102380.28
2022-10-11T18:17:00.790Z,102371.63
2022-10-11T18:19:27.289Z,102386.50
2022-10-11T18:21:53.644Z,102372.59
2022-10-11T18:24:20.082Z,102378.31
2022-10-11T18:26:46.963Z,102377.94
2022-10-11T18:29:13.678Z,102375.81
2022-10-11T18:31:41.148Z,102374.72
2022-10-11T18:34:10.827Z,102380.31
2022-10-11T18:36:37.890Z,102374.31
2022-10-11T18:39:07.367Z,102377.72
2022-10-11T18:41:34.219Z,102379.88
2022-10-11T18:44:03.893Z,102372.56
2022-10-11T18:46:30.579Z,102369.34
2022-10-11T18:48:59.678Z,102382.00
2022-10-11T18:51:28.694Z,102373.06
2022-10-11T18:53:55.727Z,102361.25
2022-10-11T18:56:24.682Z,102365.75
2022-10-11T18:58:52.847Z,102381.03
2022-10-11T19:01:31.626Z,102379.56
2022-10-11T19:03:59.968Z,102371.91
2022-10-11T19:06:49.367Z,102386.25
2022-10-11T19:09:21.648Z,102395.47
2022-10-11T19:11:50.237Z,102381.13
2022-10-11T19:14:18.853Z,102387.78
2022-10-11T19:16:51.498Z,102380.66
2022-10-11T19:19:20.383Z,102389.66
2022-10-11T19:21:48.605Z,102379.47
2022-10-11T19:24:20.319Z,102385.28
2022-10-11T19:26:47.430Z,102383.03
2022-10-11T19:29:19.677Z,102385.16
2022-10-11T19:31:54.529Z,102383.78
2022-10-11T19:34:22.664Z,102377.16
2022-10-11T19:36:53.253Z,102384.63
2022-10-11T19:39:21.392Z,102375.44
2022-10-11T19:41:47.782Z,102377.69
2022-10-11T19:44:15.326Z,102381.34
2022-10-11T19:46:51.640Z,102384.31
2022-10-11T19:49:22.335Z,102381.19
2022-10-11T19:51:48.775Z,102381.41
2022-10-11T19:54:15.635Z,102389.94
2022-10-11T19:56:43.016Z,102382.16
2022-10-11T19:59:10.944Z,102389.72
2022-10-11T20:01:37.470Z,102388.22
2022-10-11T20:04:22.625Z,102390.22
2022-10-11T20:06:57.382Z,102382.63
2022-10-11T20:09:29.465Z,102389.25
2022-10-11T20:11:56.947Z,102379.59
2022-10-11T20:14:26.670Z,102388.25
2022-10-11T20:16:53.144Z,102380.81
2022-10-11T20:19:20.033Z,102371.81
2022-10-11T20:21:47.637Z,102386.56
2022-10-11T20:24:14.102Z,102379.63
2022-10-11T20:26:40.578Z,102383.44
2022-10-11T20:29:07.259Z,102385.44
2022-10-11T20:31:37.933Z,102381.16
2022-10-11T20:34:07.007Z,102374.53
2022-10-11T20:36:35.793Z,102384.34
2022-10-11T20:39:02.265Z,102383.69
2022-10-11T20:41:34.191Z,102381.28
2022-10-11T20:44:02.224Z,102387.91
2022-10-11T20:46:31.408Z,102387.22
2022-10-11T20:49:02.022Z,102384.09
2022-10-11T20:51:30.474Z,102374.31
2022-10-11T20:53:58.076Z,102389.06
2022-10-11T20:56:25.128Z,102389.34
2022-10-11T20:58:53.319Z,102399.38
2022-10-11T21:01:26.318Z,102398.78
2022-10-11T21:03:53.478Z,102388.69
2022-10-11T21:06:20.445Z,102393.38
2022-10-11T21:08:46.878Z,102393.66
2022-10-11T21:11:13.405Z,102394.16
2022-10-11T21:13:40.733Z,102398.63
2022-10-11T21:16:12.626Z,102398.97
2022-10-11T21:18:39.358Z,102402.59
2022-10-11T21:21:13.758Z,102404.56
2022-10-11T21:23:41.706Z,102397.94
2022-10-11T21:26:11.416Z,102387.81
2022-10-11T21:28:38.300Z,102400.28
2022-10-11T21:31:09.522Z,102397.53
2022-10-11T21:33:36.596Z,102403.88
2022-10-11T21:36:05.147Z,102400.56
2022-10-11T21:38:31.796Z,102406.25
2022-10-11T21:40:58.173Z,102404.72
2022-10-11T21:43:24.908Z,102405.47
2022-10-11T21:45:51.352Z,102394.53
2022-10-11T21:48:17.798Z,102392.06
2022-10-11T21:50:44.153Z,102403.31
2022-10-11T21:53:10.721Z,102401.75
2022-10-11T21:55:37.093Z,102398.41
2022-10-11T21:58:03.459Z,102395.06
2022-10-11T22:00:29.893Z,102398.78
2022-10-11T22:02:56.491Z,102393.34
2022-10-11T22:05:22.856Z,102393.56
2022-10-11T22:07:49.271Z,102404.22
2022-10-11T22:10:15.821Z,102398.19
2022-10-11T22:12:42.408Z,102399.91
2022-10-11T22:15:09.198Z,102399.41
2022-10-11T22:17:35.586Z,102390.75
2022-10-11T22:20:02.147Z,102397.97
2022-10-11T22:22:28.497Z,102394.56
2022-10-11T22:24:54.955Z,102405.97
2022-10-11T22:27:21.381Z,102391.34
2022-10-11T22:29:47.743Z,102400.13
2022-10-11T22:32:14.099Z,102405.44
2022-10-11T22:34:40.678Z,102390.78
2022-10-11T22:37:07.026Z,102389.81
2022-10-11T22:39:33.439Z,102379.38
2022-10-11T22:42:00.021Z,102400.91
2022-10-11T22:44:29.431Z,102389.41
2022-10-11T22:46:55.929Z,102398.25
2022-10-11T22:49:22.429Z,102403.38
2022-10-11T22:51:49.561Z,102384.47
2022-10-11T22:54:15.928Z,102406.31
2022-10-11T22:56:42.434Z,102397.59
2022-10-11T22:59:09.488Z,102397.91
2022-10-11T23:01:35.843Z,102405.19
2022-10-11T23:04:02.332Z,102404.25
2022-10-11T23:06:28.791Z,102407.16
